Time;durP1;ratioP1;P1;durP2;ratioP2;P2;SDS_P1;SDS_P2;PMS_P1;PMS_P2;Temp;Humidity;BMP_temperature;BMP_pressure;BME280_temperature;BME280_humidity;BME280_pressure;Samples;Min_cycle;Max_cycle;Signal;HPM_P1;HPM_P2
2022/03/16 00:01:13;;;;;;;93.13;34.28;;;;;;;2.72;100.00;100136.66;4985994;28;20481;-54
2022/03/16 00:03:39;;;;;;;76.97;28.77;;;;;;;2.66;100.00;100135.53;4988862;28;20022;-55
2022/03/16 00:06:04;;;;;;;77.15;31.63;;;;;;;2.46;100.00;100142.19;4986834;28;20045;-53
2022/03/16 00:08:31;;;;;;;85.78;33.20;;;;;;;2.26;100.00;100149.66;4988020;28;20485;-54
2022/03/16 00:11:00;;;;;;;78.15;31.60;;;;;;;2.06;100.00;100142.03;4991203;28;20026;-55
2022/03/16 00:13:25;;;;;;;66.63;29.25;;;;;;;1.94;100.00;100146.81;4971472;28;20034;-55
2022/03/16 00:15:51;;;;;;;64.93;29.23;;;;;;;2.07;100.00;100148.16;4986775;28;20061;-54
2022/03/16 00:18:16;;;;;;;71.22;31.38;;;;;;;1.93;100.00;100145.16;4988028;28;20116;-56
2022/03/16 00:20:42;;;;;;;73.97;31.88;;;;;;;1.78;100.00;100143.34;4988635;28;20100;-54
2022/03/16 00:23:07;;;;;;;67.45;28.00;;;;;;;1.92;100.00;100150.59;4987925;28;20027;-55
2022/03/16 00:25:33;;;;;;;68.78;29.60;;;;;;;1.81;100.00;100148.28;4987407;28;20415;-55
2022/03/16 00:27:58;;;;;;;65.15;26.15;;;;;;;1.65;100.00;100141.19;4990802;28;20037;-54
2022/03/16 00:30:24;;;;;;;67.43;28.83;;;;;;;1.72;100.00;100137.72;4990620;28;20480;-55
2022/03/16 00:32:49;;;;;;;69.22;28.48;;;;;;;1.86;100.00;100141.53;4991757;28;20030;-53
2022/03/16 00:35:14;;;;;;;70.38;29.70;;;;;;;1.68;100.00;100133.75;5005669;28;20030;-54
2022/03/16 00:37:40;;;;;;;67.22;29.23;;;;;;;1.45;100.00;100133.53;4991132;28;20026;-54
2022/03/16 00:40:09;;;;;;;71.53;28.02;;;;;;;1.58;100.00;100134.88;4994638;28;20177;-54
2022/03/16 00:42:34;;;;;;;65.65;28.48;;;;;;;1.32;100.00;100138.41;4994401;28;20125;-54
2022/03/16 00:45:00;;;;;;;62.75;26.73;;;;;;;1.19;100.00;100138.06;4994599;28;20376;-54
2022/03/16 00:47:25;;;;;;;61.63;27.27;;;;;;;1.10;100.00;100134.56;4991370;28;20030;-55
2022/03/16 00:49:50;;;;;;;59.67;25.75;;;;;;;1.11;100.00;100135.38;5004868;28;20528;-54
2022/03/16 00:52:16;;;;;;;55.40;25.17;;;;;;;1.06;100.00;100144.59;4990143;28;20369;-55
2022/03/16 00:54:41;;;;;;;57.70;25.27;;;;;;;0.94;100.00;100145.88;4991247;28;20045;-53
2022/03/16 00:57:06;;;;;;;53.58;24.85;;;;;;;0.96;100.00;100138.63;4990108;28;20034;-54
2022/03/16 00:59:32;;;;;;;58.45;26.58;;;;;;;0.89;100.00;100148.16;4999550;28;20115;-54
2022/03/16 01:01:57;;;;;;;60.38;26.27;;;;;;;0.89;100.00;100145.50;4992206;28;20042;-55
2022/03/16 01:04:23;;;;;;;64.35;27.83;;;;;;;0.80;100.00;100139.38;4991729;28;20056;-55
2022/03/16 01:06:49;;;;;;;50.38;23.95;;;;;;;0.76;100.00;100138.03;4991061;28;20105;-55
2022/03/16 01:09:14;;;;;;;65.07;27.35;;;;;;;0.83;100.00;100133.78;4993669;28;20814;-54
2022/03/16 01:11:40;;;;;;;64.88;27.75;;;;;;;0.66;100.00;100136.50;4993867;28;20031;-53
2022/03/16 01:14:06;;;;;;;139.38;24.42;;;;;;;0.78;100.00;100137.88;4990669;28;20034;-55
2022/03/16 01:16:35;;;;;;;71.28;24.88;;;;;;;0.72;100.00;100143.78;4996999;28;20114;-55
2022/03/16 01:19:00;;;;;;;61.00;25.92;;;;;;;0.59;100.00;100136.28;4996521;28;20022;-54
2022/03/16 01:21:26;;;;;;;55.00;25.20;;;;;;;0.41;100.00;100129.25;4993223;28;20044;-55
2022/03/16 01:23:51;;;;;;;85.88;21.23;;;;;;;0.50;100.00;100140.69;4989376;28;20034;-55
2022/03/16 01:26:17;;;;;;;50.30;20.30;;;;;;;0.60;100.00;100144.03;4993721;28;20026;-55
2022/03/16 01:28:43;;;;;;;137.23;22.25;;;;;;;0.49;100.00;100141.66;4990196;28;20034;-55
2022/03/16 01:31:08;;;;;;;55.17;21.20;;;;;;;0.26;100.00;100140.50;4997463;28;20029;-55
2022/03/16 01:33:34;;;;;;;41.88;20.38;;;;;;;0.36;100.00;100135.97;5001341;28;20381;-55
2022/03/16 01:35:59;;;;;;;46.25;19.45;;;;;;;0.55;100.00;100125.22;4996981;28;20077;-55
2022/03/16 01:38:24;;;;;;;68.85;21.33;;;;;;;0.61;100.00;100124.59;4988164;28;20224;-55
2022/03/16 01:40:50;;;;;;;209.00;23.48;;;;;;;1.04;100.00;100125.44;4993217;28;20026;-55
2022/03/16 01:43:15;;;;;;;321.70;24.30;;;;;;;1.10;100.00;100128.44;4988296;28;20277;-55
2022/03/16 01:45:48;;;;;;;184.38;23.85;;;;;;;1.11;100.00;100124.84;4985080;28;20054;-55
2022/03/16 01:48:13;;;;;;;197.23;21.13;;;;;;;1.08;100.00;100132.06;4988115;28;20105;-56
2022/03/16 01:50:38;;;;;;;140.25;23.77;;;;;;;0.85;100.00;100128.34;4986583;28;20019;-55
2022/03/16 01:53:04;;;;;;;243.20;22.15;;;;;;;1.15;100.00;100131.44;4963729;28;20029;-55
2022/03/16 01:55:29;;;;;;;251.70;22.73;;;;;;;1.14;100.00;100130.59;4984959;28;20492;-55
2022/03/16 01:57:55;;;;;;;122.60;22.08;;;;;;;1.07;100.00;100140.16;4987224;28;20504;-54
2022/03/16 02:00:22;;;;;;;152.95;22.48;;;;;;;1.01;100.00;100135.50;4995940;28;20042;-55
2022/03/16 02:02:47;;;;;;;303.33;26.77;;;;;;;0.62;100.00;100142.09;4986880;28;20034;-55
2022/03/16 02:05:13;;;;;;;223.30;24.98;;;;;;;0.62;100.00;100130.69;4987378;28;20088;-53
2022/03/16 02:07:39;;;;;;;87.93;21.30;;;;;;;0.74;100.00;100136.53;4986504;28;20718;-52
2022/03/16 02:10:05;;;;;;;156.57;22.58;;;;;;;0.92;100.00;100132.00;4991668;28;20111;-53
2022/03/16 02:12:42;;;;;;;102.10;21.95;;;;;;;0.91;100.00;100129.53;4987313;28;20362;-55
2022/03/16 02:15:08;;;;;;;80.75;22.88;;;;;;;0.98;100.00;100130.56;4987754;28;20030;-53
2022/03/16 02:17:33;;;;;;;66.82;22.17;;;;;;;0.83;100.00;100135.59;4987307;28;20133;-55
2022/03/16 02:19:59;;;;;;;114.20;23.05;;;;;;;0.73;100.00;100132.25;4990122;28;20064;-54
2022/03/16 02:22:24;;;;;;;166.43;23.00;;;;;;;0.71;100.00;100128.94;4984554;28;20052;-53
2022/03/16 02:24:50;;;;;;;108.53;20.17;;;;;;;0.72;100.00;100135.84;4987592;28;20022;-55
2022/03/16 02:27:15;;;;;;;139.50;25.17;;;;;;;0.52;100.00;100125.50;4986306;28;20408;-55
2022/03/16 02:29:41;;;;;;;83.13;23.27;;;;;;;0.44;100.00;100136.00;4987459;28;20034;-53
2022/03/16 02:32:07;;;;;;;76.65;22.98;;;;;;;0.46;100.00;100147.25;4990033;28;20093;-55
2022/03/16 02:34:32;;;;;;;84.45;21.52;;;;;;;0.45;100.00;100135.03;4989457;28;20029;-54
2022/03/16 02:36:57;;;;;;;119.82;21.65;;;;;;;0.43;100.00;100144.91;4986558;28;20085;-55
2022/03/16 02:39:23;;;;;;;117.70;21.80;;;;;;;0.43;100.00;100143.09;4986663;28;20037;-55
2022/03/16 02:41:50;;;;;;;59.47;19.33;;;;;;;0.52;100.00;100143.97;4986662;28;20204;-54
2022/03/16 02:44:16;;;;;;;323.50;24.05;;;;;;;0.42;100.00;100145.88;4990300;28;20311;-53
2022/03/16 02:46:41;;;;;;;88.32;20.98;;;;;;;0.47;100.00;100146.25;4986471;28;20530;-54
2022/03/16 02:49:07;;;;;;;80.57;19.58;;;;;;;0.42;100.00;100148.53;4992412;28;20030;-54
2022/03/16 02:51:32;;;;;;;73.53;18.58;;;;;;;0.41;100.00;100146.88;4987060;28;20049;-55
2022/03/16 02:53:58;;;;;;;111.75;19.45;;;;;;;0.55;100.00;100151.59;4986792;28;20038;-55
2022/03/16 02:56:27;;;;;;;115.90;19.27;;;;;;;0.50;100.00;100156.50;4987567;28;20042;-54
2022/03/16 02:58:52;;;;;;;158.75;19.33;;;;;;;0.51;100.00;100154.69;4999993;28;20029;-54
2022/03/16 03:01:20;;;;;;;93.07;18.15;;;;;;;0.56;100.00;100153.25;4986285;28;20038;-54
2022/03/16 03:03:46;;;;;;;97.78;18.75;;;;;;;0.61;100.00;100156.25;4985808;28;20062;-54
2022/03/16 03:06:11;;;;;;;144.00;18.95;;;;;;;0.59;100.00;100168.75;4984661;28;20057;-53
2022/03/16 03:08:36;;;;;;;150.70;19.73;;;;;;;0.61;100.00;100172.06;4990681;28;20031;-55
2022/03/16 03:11:02;;;;;;;142.00;19.27;;;;;;;0.63;100.00;100171.94;4988817;28;20121;-54
2022/03/16 03:13:27;;;;;;;89.18;20.02;;;;;;;0.68;100.00;100167.00;4990271;28;20037;-54
2022/03/16 03:15:53;;;;;;;89.63;20.00;;;;;;;0.73;100.00;100158.63;4985936;28;20030;-54
2022/03/16 03:18:18;;;;;;;85.57;20.02;;;;;;;0.84;100.00;100156.53;4986352;28;20034;-55
2022/03/16 03:20:44;;;;;;;81.90;19.15;;;;;;;0.93;100.00;100154.78;4974035;28;20787;-54
2022/03/16 03:23:09;;;;;;;131.75;18.90;;;;;;;0.89;100.00;100163.16;4986465;28;20038;-54
2022/03/16 03:25:34;;;;;;;59.85;18.33;;;;;;;0.92;100.00;100163.66;4986187;28;20569;-55
2022/03/16 03:28:00;;;;;;;117.22;19.48;;;;;;;0.91;100.00;100167.31;4991426;28;20388;-55
2022/03/16 03:30:25;;;;;;;219.35;20.85;;;;;;;0.89;100.00;100160.53;4971489;28;20035;-54
2022/03/16 03:32:51;;;;;;;174.68;20.70;;;;;;;0.97;100.00;100166.66;4984901;28;20084;-56
2022/03/16 03:35:16;;;;;;;136.77;21.67;;;;;;;0.98;100.00;100163.06;4986183;28;20026;-55
2022/03/16 03:37:41;;;;;;;83.97;17.67;;;;;;;1.00;100.00;100173.44;4984670;28;20018;-54
2022/03/16 03:40:07;;;;;;;113.03;20.35;;;;;;;1.07;100.00;100177.97;4993022;28;20037;-55
2022/03/16 03:42:33;;;;;;;111.45;19.77;;;;;;;1.06;100.00;100167.53;4985599;28;20660;-55
2022/03/16 03:44:58;;;;;;;181.60;19.60;;;;;;;1.09;100.00;100167.22;4987277;28;20054;-55
2022/03/16 03:47:23;;;;;;;110.20;19.23;;;;;;;1.17;100.00;100171.72;4982192;28;20602;-55
2022/03/16 03:49:49;;;;;;;115.63;21.92;;;;;;;1.19;100.00;100170.56;5002242;28;20069;-54
2022/03/16 03:52:14;;;;;;;128.07;21.23;;;;;;;1.25;100.00;100174.41;4985275;28;20042;-55
2022/03/16 03:54:40;;;;;;;86.97;20.42;;;;;;;1.19;100.00;100177.66;4994688;28;20031;-55
2022/03/16 03:57:06;;;;;;;91.13;20.10;;;;;;;1.23;100.00;100184.28;4985826;28;20088;-55
2022/03/16 03:59:31;;;;;;;86.95;21.75;;;;;;;1.26;100.00;100186.63;4998323;28;20018;-54
2022/03/16 04:01:57;;;;;;;96.05;20.52;;;;;;;1.29;100.00;100175.72;4986032;28;20496;-55
2022/03/16 04:04:22;;;;;;;87.38;19.77;;;;;;;1.32;100.00;100185.16;4985646;28;20378;-55
2022/03/16 04:06:48;;;;;;;75.38;20.98;;;;;;;1.27;100.00;100185.63;4991495;28;20570;-54
2022/03/16 04:09:13;;;;;;;89.80;21.58;;;;;;;1.27;100.00;100181.19;4985942;28;20030;-55
2022/03/16 04:11:39;;;;;;;67.40;20.90;;;;;;;1.35;100.00;100183.03;4989610;28;20038;-53
2022/03/16 04:14:04;;;;;;;55.60;19.98;;;;;;;1.45;100.00;100186.38;4986530;28;20026;-55
2022/03/16 04:16:30;;;;;;;68.72;22.70;;;;;;;1.49;100.00;100182.41;4984024;28;20026;-55
2022/03/16 04:18:55;;;;;;;170.32;26.88;;;;;;;1.42;100.00;100175.28;4985269;28;20096;-55
2022/03/16 04:21:21;;;;;;;128.55;26.15;;;;;;;1.42;100.00;100181.41;4985331;28;20661;-53
2022/03/16 04:23:46;;;;;;;100.50;23.67;;;;;;;1.38;100.00;100190.63;4990808;28;20021;-54
2022/03/16 04:26:12;;;;;;;147.05;28.05;;;;;;;1.41;100.00;100181.56;4984928;28;20030;-55
2022/03/16 04:28:37;;;;;;;102.75;24.40;;;;;;;1.41;100.00;100195.59;5000691;28;20108;-53
2022/03/16 04:31:02;;;;;;;108.18;24.77;;;;;;;1.40;100.00;100193.94;4983892;28;20034;-54
2022/03/16 04:33:28;;;;;;;117.47;26.48;;;;;;;1.44;100.00;100189.97;4986438;28;20061;-54
2022/03/16 04:35:54;;;;;;;250.25;24.63;;;;;;;1.37;100.00;100188.13;4985082;28;20278;-55
2022/03/16 04:38:19;;;;;;;94.20;23.77;;;;;;;1.39;100.00;100187.00;4985949;28;20468;-52
2022/03/16 04:40:45;;;;;;;238.05;29.30;;;;;;;1.41;100.00;100181.56;4984683;28;20030;-54
2022/03/16 04:43:11;;;;;;;130.18;29.10;;;;;;;1.42;100.00;100181.41;4985470;28;20073;-53
2022/03/16 04:45:38;;;;;;;118.47;26.88;;;;;;;1.46;100.00;100177.44;4984569;28;20597;-53
2022/03/16 04:48:07;;;;;;;145.85;25.60;;;;;;;1.61;100.00;100182.94;4984752;28;20030;-54
2022/03/16 04:50:34;;;;;;;160.13;23.25;;;;;;;1.49;100.00;100177.13;4985049;28;20403;-53
2022/03/16 04:52:59;;;;;;;146.23;23.75;;;;;;;1.44;100.00;100176.78;4991904;28;20492;-55
2022/03/16 04:55:24;;;;;;;123.00;24.08;;;;;;;1.44;100.00;100175.94;4984720;28;20057;-53
2022/03/16 04:57:50;;;;;;;84.82;23.95;;;;;;;1.45;100.00;100185.53;4988602;28;20034;-52
2022/03/16 05:00:15;;;;;;;155.25;22.52;;;;;;;1.38;100.00;100179.25;4988678;28;20030;-52
2022/03/16 05:02:41;;;;;;;146.65;22.42;;;;;;;1.42;100.00;100184.06;4999950;28;20062;-53
2022/03/16 05:05:07;;;;;;;109.20;22.83;;;;;;;1.44;100.00;100179.41;4992757;28;20468;-53
2022/03/16 05:07:32;;;;;;;99.55;21.55;;;;;;;1.50;100.00;100173.50;4984023;28;20030;-51
2022/03/16 05:09:57;;;;;;;85.47;22.30;;;;;;;1.55;100.00;100190.66;4989240;28;20042;-53
2022/03/16 05:12:23;;;;;;;142.35;22.35;;;;;;;1.47;100.00;100183.53;4986473;28;20030;-53
2022/03/16 05:14:48;;;;;;;98.65;23.35;;;;;;;1.61;100.00;100190.03;4988823;28;20031;-51
2022/03/16 05:17:13;;;;;;;63.30;22.58;;;;;;;1.62;100.00;100186.41;4986603;28;20578;-53
2022/03/16 05:19:39;;;;;;;123.07;21.23;;;;;;;1.56;100.00;100192.34;4988507;28;20042;-54
2022/03/16 05:22:04;;;;;;;110.43;21.58;;;;;;;1.48;100.00;100193.97;4992054;28;20362;-54
2022/03/16 05:24:30;;;;;;;111.22;20.17;;;;;;;1.47;100.00;100189.69;5004140;28;20146;-54
2022/03/16 05:26:55;;;;;;;141.27;22.30;;;;;;;1.47;100.00;100184.41;4997970;28;20034;-53
2022/03/16 05:29:21;;;;;;;173.20;22.73;;;;;;;1.44;100.00;100186.50;4993576;28;20026;-56
2022/03/16 05:31:46;;;;;;;227.70;22.20;;;;;;;1.49;100.00;100187.69;4989303;28;20384;-55
2022/03/16 05:34:11;;;;;;;81.38;20.25;;;;;;;1.49;100.00;100171.84;4990714;28;20030;-56
2022/03/16 05:36:37;;;;;;;221.15;23.17;;;;;;;1.44;100.00;100184.69;4997115;28;20026;-56
2022/03/16 05:39:04;;;;;;;204.43;22.83;;;;;;;1.46;100.00;100174.81;4998548;28;20030;-53
2022/03/16 05:41:29;;;;;;;97.32;23.25;;;;;;;1.57;100.00;100183.41;5002256;28;20030;-56
2022/03/16 05:43:55;;;;;;;136.35;24.67;;;;;;;1.56;100.00;100187.06;4990131;28;20070;-56
2022/03/16 05:46:20;;;;;;;127.40;22.75;;;;;;;1.59;100.00;100192.00;4989951;28;20034;-53
2022/03/16 05:48:48;;;;;;;112.35;22.38;;;;;;;1.60;100.00;100198.94;4990414;28;20499;-55
2022/03/16 05:51:14;;;;;;;158.25;24.38;;;;;;;1.61;100.00;100195.34;4990878;28;20053;-55
2022/03/16 05:53:39;;;;;;;102.22;22.52;;;;;;;1.60;100.00;100198.94;4990456;28;20030;-54
2022/03/16 05:56:05;;;;;;;74.72;23.23;;;;;;;1.58;100.00;100195.66;4990493;28;20038;-55
2022/03/16 05:58:30;;;;;;;111.05;22.70;;;;;;;1.49;100.00;100192.97;4991392;28;20034;-56
2022/03/16 06:00:56;;;;;;;205.38;23.05;;;;;;;1.39;100.00;100200.19;4992759;28;20022;-55
2022/03/16 06:03:21;;;;;;;92.70;21.05;;;;;;;1.52;100.00;100199.75;5005250;28;20045;-54
2022/03/16 06:05:46;;;;;;;87.28;22.45;;;;;;;1.64;100.00;100200.28;4990243;28;20038;-54
2022/03/16 06:08:12;;;;;;;85.57;20.75;;;;;;;1.71;100.00;100201.31;4989683;28;21702;-55
2022/03/16 06:10:39;;;;;;;196.48;23.55;;;;;;;1.66;100.00;100208.88;4994790;28;20033;-54
2022/03/16 06:13:05;;;;;;;173.38;22.48;;;;;;;1.74;100.00;100200.97;4998591;28;20526;-53
2022/03/16 06:15:37;;;;;;;111.95;21.25;;;;;;;1.73;100.00;100197.50;5002070;28;20231;-55
2022/03/16 06:18:02;;;;;;;141.15;23.50;;;;;;;1.79;100.00;100200.50;4989212;28;20493;-54
2022/03/16 06:20:28;;;;;;;142.43;23.15;;;;;;;1.89;100.00;100196.72;4989385;28;20546;-55
2022/03/16 06:22:54;;;;;;;163.60;22.70;;;;;;;1.93;100.00;100200.69;4989976;28;20422;-52
2022/03/16 06:25:19;;;;;;;161.13;22.73;;;;;;;1.93;100.00;100198.06;4989448;28;20042;-54
2022/03/16 06:27:44;;;;;;;179.30;24.23;;;;;;;2.03;100.00;100194.44;4989633;28;20103;-54
2022/03/16 06:30:10;;;;;;;123.75;21.00;;;;;;;2.11;100.00;100189.16;4992573;28;20243;-54
2022/03/16 06:32:36;;;;;;;170.13;22.63;;;;;;;2.13;100.00;100201.22;4989551;28;20158;-54
2022/03/16 06:35:03;;;;;;;159.68;21.30;;;;;;;2.22;100.00;100194.13;4989057;28;20031;-55
2022/03/16 06:37:28;;;;;;;246.40;22.02;;;;;;;2.20;100.00;100196.09;4987592;28;20030;-55
2022/03/16 06:39:53;;;;;;;178.60;22.58;;;;;;;2.16;100.00;100184.19;4989928;28;20092;-54
2022/03/16 06:42:19;;;;;;;418.95;24.25;;;;;;;2.16;100.00;100200.06;4988587;28;20026;-54
2022/03/16 06:44:44;;;;;;;225.65;22.65;;;;;;;2.07;100.00;100201.03;4990026;28;20489;-55
2022/03/16 06:47:10;;;;;;;194.00;21.45;;;;;;;2.09;100.00;100199.06;4989456;28;20475;-55
2022/03/16 06:49:36;;;;;;;209.13;22.42;;;;;;;2.18;100.00;100199.91;4989876;28;20034;-56
2022/03/16 06:52:01;;;;;;;349.08;24.38;;;;;;;2.05;100.00;100197.75;4988770;28;20026;-54
2022/03/16 06:54:27;;;;;;;222.52;23.88;;;;;;;2.11;100.00;100197.09;4988815;28;20061;-56
2022/03/16 06:56:53;;;;;;;263.63;25.15;;;;;;;2.01;100.00;100188.47;4993266;28;20030;-55
2022/03/16 06:59:18;;;;;;;209.88;28.33;;;;;;;2.15;100.00;100203.72;4993403;28;20092;-55
2022/03/16 07:01:44;;;;;;;217.70;27.67;;;;;;;2.30;100.00;100201.25;4988910;28;20085;-53
2022/03/16 07:04:09;;;;;;;252.35;26.65;;;;;;;2.03;100.00;100205.00;4990161;28;20034;-54
2022/03/16 07:06:35;;;;;;;281.33;25.73;;;;;;;2.01;100.00;100201.69;4993036;28;20045;-55
2022/03/16 07:09:00;;;;;;;278.45;27.33;;;;;;;1.88;100.00;100199.53;4989330;28;20034;-55
2022/03/16 07:11:25;;;;;;;227.88;24.30;;;;;;;1.80;100.00;100200.34;4989052;28;20504;-55
2022/03/16 07:16:35;;;;;;;241.32;25.17;;;;;;;1.88;100.00;100208.28;4994765;28;20395;-54
2022/03/16 07:19:02;;;;;;;113.50;23.35;;;;;;;2.16;100.00;100210.63;4994322;28;20049;-55
2022/03/16 07:21:27;;;;;;;179.18;27.20;;;;;;;2.34;100.00;100203.38;4988998;28;20030;-55
2022/03/16 07:23:52;;;;;;;140.98;26.77;;;;;;;2.66;100.00;100212.28;4988743;28;20026;-55
2022/03/16 07:26:18;;;;;;;271.92;29.58;;;;;;;2.46;100.00;100211.81;4988961;28;20444;-55
2022/03/16 07:28:43;;;;;;;114.68;26.48;;;;;;;2.73;100.00;100217.75;4992897;28;20046;-55
2022/03/16 07:31:09;;;;;;;122.97;27.80;;;;;;;2.80;100.00;100226.69;4988100;28;20072;-55
2022/03/16 07:33:35;;;;;;;145.70;25.73;;;;;;;2.64;100.00;100224.88;4998790;28;20096;-55
2022/03/16 07:36:01;;;;;;;198.00;26.63;;;;;;;2.63;100.00;100220.56;5000515;28;20030;-56
2022/03/16 07:38:26;;;;;;;86.93;28.13;;;;;;;2.95;100.00;100216.25;4988909;28;20053;-53
2022/03/16 07:40:52;;;;;;;133.90;26.00;;;;;;;3.13;100.00;100223.97;4995370;28;20469;-56
2022/03/16 07:43:17;;;;;;;103.35;24.77;;;;;;;2.62;100.00;100226.03;4989168;28;20042;-55
2022/03/16 07:45:43;;;;;;;107.10;24.40;;;;;;;2.83;100.00;100239.59;4988458;28;20457;-54
2022/03/16 07:48:08;;;;;;;125.35;25.45;;;;;;;2.98;100.00;100239.72;4987748;28;20031;-54
2022/03/16 07:50:34;;;;;;;79.78;26.85;;;;;;;2.93;100.00;100239.41;4988614;28;20037;-52
2022/03/16 07:52:59;;;;;;;130.02;27.98;;;;;;;2.78;100.00;100237.44;4987300;28;20481;-55
2022/03/16 07:55:25;;;;;;;75.10;26.63;;;;;;;3.08;100.00;100243.03;4987408;28;20041;-54
2022/03/16 07:57:52;;;;;;;81.55;24.40;;;;;;;3.53;100.00;100241.56;4988654;28;20030;-54
2022/03/16 08:00:18;;;;;;;74.38;24.70;;;;;;;3.74;100.00;100248.09;4992022;28;20144;-55
2022/03/16 08:02:44;;;;;;;112.32;26.30;;;;;;;3.79;100.00;100241.25;4987240;28;20026;-54
2022/03/16 08:05:09;;;;;;;94.22;25.63;;;;;;;3.44;100.00;100237.28;4987676;28;20899;-54
2022/03/16 08:07:36;;;;;;;111.97;26.17;;;;;;;3.39;100.00;100239.63;4983366;28;20518;-54
2022/03/16 08:10:01;;;;;;;88.10;27.20;;;;;;;3.77;100.00;100240.63;4996450;28;20025;-52
2022/03/16 08:12:27;;;;;;;148.90;25.70;;;;;;;3.77;100.00;100242.44;4994176;28;20045;-54
2022/03/16 08:14:52;;;;;;;76.43;27.48;;;;;;;3.86;100.00;100236.91;4997328;28;20033;-54
2022/03/16 08:17:18;;;;;;;92.43;27.40;;;;;;;4.17;100.00;100232.59;4987982;28;20440;-54
2022/03/16 08:19:43;;;;;;;61.75;26.00;;;;;;;3.77;100.00;100242.44;4989056;28;20046;-54
2022/03/16 08:22:08;;;;;;;92.18;28.77;;;;;;;3.85;100.00;100234.47;4986926;28;20064;-54
2022/03/16 08:24:34;;;;;;;93.88;31.92;;;;;;;4.37;100.00;100248.88;4988257;28;20026;-55
2022/03/16 08:27:00;;;;;;;83.75;30.88;;;;;;;4.69;100.00;100231.84;4988581;28;20412;-54
2022/03/16 08:29:25;;;;;;;89.97;32.60;;;;;;;5.09;99.70;100235.97;4987703;28;20037;-54
2022/03/16 08:31:50;;;;;;;77.20;31.75;;;;;;;5.77;98.00;100236.69;4987832;28;20518;-54
2022/03/16 08:34:18;;;;;;;53.17;24.10;;;;;;;6.38;92.06;100227.50;4988725;28;20096;-54
2022/03/16 08:36:44;;;;;;;58.90;25.83;;;;;;;7.22;89.54;100221.41;4991709;28;20118;-54
2022/03/16 08:39:09;;;;;;;53.97;25.52;;;;;;;7.51;85.60;100226.50;4988574;28;20480;-54
2022/03/16 08:41:35;;;;;;;53.03;25.58;;;;;;;7.47;88.08;100221.75;4987825;28;20085;-54
2022/03/16 08:44:02;;;;;;;41.33;21.17;;;;;;;7.36;85.99;100225.78;4988794;28;20297;-52
2022/03/16 08:46:27;;;;;;;41.00;20.02;;;;;;;7.51;84.94;100220.31;4987778;28;20038;-55
2022/03/16 08:48:53;;;;;;;45.83;22.77;;;;;;;8.77;81.73;100217.13;4988041;28;20023;-55
2022/03/16 08:51:18;;;;;;;49.75;22.85;;;;;;;8.76;82.07;100216.31;4990883;28;20032;-54
2022/03/16 08:53:44;;;;;;;36.00;19.48;;;;;;;8.57;77.57;100211.78;4992197;28;20026;-54
2022/03/16 08:56:11;;;;;;;38.63;19.80;;;;;;;7.57;84.32;100223.00;4998161;28;20496;-55
2022/03/16 08:58:37;;;;;;;39.53;19.77;;;;;;;8.63;80.50;100210.97;4996298;28;20029;-54
2022/03/16 09:01:02;;;;;;;37.92;19.90;;;;;;;7.90;82.42;100216.16;4995025;28;20042;-54
2022/03/16 09:03:28;;;;;;;34.75;17.85;;;;;;;8.04;81.68;100212.50;4992045;28;20034;-54
2022/03/16 09:05:53;;;;;;;33.92;18.23;;;;;;;8.35;79.85;100213.78;4990650;28;20116;-55
2022/03/16 09:08:19;;;;;;;36.15;19.33;;;;;;;8.34;81.47;100212.97;4991529;28;20030;-53
2022/03/16 09:10:45;;;;;;;37.65;20.17;;;;;;;8.60;80.56;100209.53;4993614;28;20041;-55
2022/03/16 09:13:10;;;;;;;40.20;20.05;;;;;;;8.39;80.51;100221.22;4998284;28;20037;-54
2022/03/16 09:15:36;;;;;;;39.35;19.88;;;;;;;7.94;83.75;100212.06;4997396;28;20113;-53
2022/03/16 09:18:01;;;;;;;31.50;14.32;;;;;;;8.26;78.99;100210.47;4991533;28;20018;-54
2022/03/16 09:20:27;;;;;;;37.28;20.17;;;;;;;8.73;79.94;100200.66;4995966;28;20112;-54
2022/03/16 09:22:53;;;;;;;37.72;19.50;;;;;;;8.15;80.34;100216.44;4993596;28;20022;-53
2022/03/16 09:25:20;;;;;;;37.45;20.27;;;;;;;7.50;82.32;100205.34;4989625;28;20101;-54
2022/03/16 09:27:45;;;;;;;34.80;17.90;;;;;;;7.44;84.54;100201.63;4996954;28;20144;-55
2022/03/16 09:30:11;;;;;;;39.95;18.77;;;;;;;8.03;82.64;100194.00;4991943;28;20030;-53
2022/03/16 09:32:37;;;;;;;43.13;21.17;;;;;;;7.68;82.78;100208.28;4992172;28;20045;-54
2022/03/16 09:35:04;;;;;;;38.28;19.33;;;;;;;7.88;83.21;100207.53;4990100;28;20034;-54
2022/03/16 09:37:29;;;;;;;36.70;18.88;;;;;;;8.07;83.17;100209.44;4989267;28;20073;-54
2022/03/16 09:39:55;;;;;;;37.97;18.00;;;;;;;8.45;81.50;100213.44;4993187;28;21400;-54
2022/03/16 09:42:20;;;;;;;36.92;17.55;;;;;;;7.97;80.75;100206.34;4990963;28;20038;-56
2022/03/16 09:44:46;;;;;;;36.90;20.23;;;;;;;7.37;80.37;100206.09;4990683;28;20476;-52
2022/03/16 09:47:11;;;;;;;36.47;20.75;;;;;;;7.73;80.29;100205.84;4990155;28;20497;-55
2022/03/16 09:49:37;;;;;;;35.22;18.40;;;;;;;8.33;80.27;100211.31;4991234;28;20022;-51
2022/03/16 09:52:04;;;;;;;31.48;16.58;;;;;;;8.19;80.28;100201.66;4989560;28;20046;-57
2022/03/16 09:54:30;;;;;;;35.42;17.65;;;;;;;8.60;79.62;100203.34;4990920;28;20096;-55
2022/03/16 09:56:56;;;;;;;36.75;18.55;;;;;;;7.61;82.72;100198.59;4988149;28;20392;-56
2022/03/16 09:59:21;;;;;;;35.67;18.80;;;;;;;7.55;81.78;100198.38;4993820;28;20069;-56
2022/03/16 10:01:46;;;;;;;34.83;17.80;;;;;;;8.28;81.37;100197.75;4998104;28;20562;-55
2022/03/16 10:04:13;;;;;;;37.67;19.73;;;;;;;8.20;80.64;100205.97;4990442;28;20060;-54
2022/03/16 10:06:40;;;;;;;34.55;16.30;;;;;;;8.05;82.12;100189.31;4990060;28;20034;-53
2022/03/16 10:15:00;;;;;;;30.20;15.75;;;;;;;7.84;82.52;100183.09;4988188;28;20037;-55
2022/03/16 10:17:43;;;;;;;32.10;15.50;;;;;;;8.35;79.37;100187.09;4989846;28;20604;-54
2022/03/16 10:20:22;;;;;;;32.72;16.50;;;;;;;8.20;80.43;100181.94;4991465;28;20058;-54
2022/03/16 10:22:56;;;;;;;35.03;19.13;;;;;;;7.90;79.55;100200.97;4988984;28;20069;-52
2022/03/16 10:25:22;;;;;;;32.45;15.02;;;;;;;8.19;81.40;100199.00;4988530;28;20402;-54
2022/03/16 10:27:47;;;;;;;30.35;16.10;;;;;;;8.59;78.75;100185.69;4988244;28;20342;-53
2022/03/16 10:30:13;;;;;;;36.58;17.65;;;;;;;8.94;77.60;100182.78;4987991;28;20026;-54
2022/03/16 10:32:39;;;;;;;37.78;18.02;;;;;;;9.19;77.20;100178.41;4992933;28;20042;-54
2022/03/16 10:35:05;;;;;;;31.70;15.77;;;;;;;9.37;75.54;100179.59;4988124;28;20034;-54
2022/03/16 10:37:31;;;;;;;35.13;16.50;;;;;;;9.80;73.54;100168.28;4989349;28;20519;-54
2022/03/16 10:39:59;;;;;;;30.80;17.55;;;;;;;8.92;74.66;100169.59;4988884;28;20038;-54
2022/03/16 10:48:20;;;;;;;37.28;17.52;;;;;;;9.69;75.46;100167.91;4988747;28;20109;-54
2022/03/16 10:50:47;;;;;;;30.42;14.70;;;;;;;9.62;73.06;100171.66;4988489;28;20045;-54
2022/03/16 10:53:15;;;;;;;27.38;13.63;;;;;;;9.53;73.13;100163.03;4998192;28;20092;-56
2022/03/16 10:55:40;;;;;;;28.80;15.65;;;;;;;10.22;70.30;100157.91;4988825;28;20072;-55
2022/03/16 10:58:06;;;;;;;28.25;16.40;;;;;;;9.66;71.45;100170.19;4971796;28;20373;-54
2022/03/16 11:00:34;;;;;;;33.15;15.38;;;;;;;10.12;71.23;100177.97;4988265;28;20542;-55
2022/03/16 11:03:01;;;;;;;26.20;14.40;;;;;;;9.68;71.72;100177.00;4987603;28;20034;-56
2022/03/16 11:05:26;;;;;;;29.35;16.10;;;;;;;9.55;72.63;100171.69;4974595;28;20038;-52
2022/03/16 11:07:52;;;;;;;33.13;16.40;;;;;;;9.87;72.97;100175.22;4986402;28;20026;-54
2022/03/16 11:10:17;;;;;;;25.92;13.40;;;;;;;9.30;72.94;100168.91;4986020;28;20030;-53
2022/03/16 11:15:30;;;;;;;34.40;18.20;;;;;;;9.21;72.71;100171.00;4996529;28;20439;-53
2022/03/16 11:17:55;;;;;;;31.20;14.98;;;;;;;9.18;74.03;100155.34;4988895;28;20041;-51